sensor_id;sensor_type;location;lat;lon;timestamp;P1;durP1;ratioP1;P2;durP2;ratioP2
2866;SDS011;1441;48.886;8.728;2023-05-17T00:01:04;3.73;;;1.30;;
2866;SDS011;1441;48.886;8.728;2023-05-17T00:03:30;3.50;;;1.20;;
2866;SDS011;1441;48.886;8.728;2023-05-17T00:05:55;1.47;;;0.87;;
2866;SDS011;1441;48.886;8.728;2023-05-17T00:08:21;3.47;;;1.40;;
2866;SDS011;1441;48.886;8.728;2023-05-17T00:10:46;13.07;;;1.23;;
2866;SDS011;1441;48.886;8.728;2023-05-17T00:13:12;5.30;;;1.20;;
2866;SDS011;1441;48.886;8.728;2023-05-17T00:15:38;5.80;;;1.00;;
2866;SDS011;1441;48.886;8.728;2023-05-17T00:18:03;6.67;;;1.60;;
2866;SDS011;1441;48.886;8.728;2023-05-17T00:20:29;3.63;;;1.47;;
2866;SDS011;1441;48.886;8.728;2023-05-17T00:22:55;2.67;;;1.40;;
2866;SDS011;1441;48.886;8.728;2023-05-17T00:25:20;1.70;;;1.00;;
2866;SDS011;1441;48.886;8.728;2023-05-17T00:27:46;1.20;;;0.90;;
2866;SDS011;1441;48.886;8.728;2023-05-17T00:30:11;2.93;;;1.53;;
2866;SDS011;1441;48.886;8.728;2023-05-17T00:32:37;1.63;;;1.03;;
2866;SDS011;1441;48.886;8.728;2023-05-17T00:35:03;3.70;;;1.33;;
2866;SDS011;1441;48.886;8.728;2023-05-17T00:37:28;5.30;;;1.37;;
2866;SDS011;1441;48.886;8.728;2023-05-17T00:39:54;15.50;;;1.30;;
2866;SDS011;1441;48.886;8.728;2023-05-17T00:42:20;4.43;;;1.27;;
2866;SDS011;1441;48.886;8.728;2023-05-17T00:44:45;2.00;;;0.90;;
2866;SDS011;1441;48.886;8.728;2023-05-17T00:47:11;1.30;;;1.17;;
2866;SDS011;1441;48.886;8.728;2023-05-17T00:49:36;2.40;;;1.00;;
2866;SDS011;1441;48.886;8.728;2023-05-17T00:52:02;4.20;;;0.97;;
2866;SDS011;1441;48.886;8.728;2023-05-17T00:54:28;6.97;;;1.23;;
2866;SDS011;1441;48.886;8.728;2023-05-17T00:56:55;5.20;;;1.60;;
2866;SDS011;1441;48.886;8.728;2023-05-17T00:59:21;2.10;;;1.00;;
2866;SDS011;1441;48.886;8.728;2023-05-17T01:01:48;2.50;;;1.20;;
2866;SDS011;1441;48.886;8.728;2023-05-17T01:04:15;4.47;;;1.20;;
2866;SDS011;1441;48.886;8.728;2023-05-17T01:06:40;6.60;;;1.33;;
2866;SDS011;1441;48.886;8.728;2023-05-17T01:09:06;4.77;;;1.37;;
2866;SDS011;1441;48.886;8.728;2023-05-17T01:11:38;2.77;;;0.97;;
2866;SDS011;1441;48.886;8.728;2023-05-17T01:17:04;4.00;;;0.97;;
2866;SDS011;1441;48.886;8.728;2023-05-17T01:28:02;4.60;;;1.10;;
2866;SDS011;1441;48.886;8.728;2023-05-17T01:30:29;2.83;;;1.10;;
2866;SDS011;1441;48.886;8.728;2023-05-17T01:32:57;5.57;;;1.63;;
2866;SDS011;1441;48.886;8.728;2023-05-17T01:35:24;0.97;;;0.90;;
2866;SDS011;1441;48.886;8.728;2023-05-17T01:37:51;3.37;;;1.03;;
2866;SDS011;1441;48.886;8.728;2023-05-17T01:40:18;1.77;;;0.90;;
2866;SDS011;1441;48.886;8.728;2023-05-17T01:42:44;2.80;;;1.37;;
2866;SDS011;1441;48.886;8.728;2023-05-17T01:45:17;5.47;;;1.13;;
2866;SDS011;1441;48.886;8.728;2023-05-17T01:50:39;4.40;;;0.97;;
2866;SDS011;1441;48.886;8.728;2023-05-17T01:56:00;4.73;;;1.43;;
2866;SDS011;1441;48.886;8.728;2023-05-17T01:58:34;2.70;;;1.13;;
2866;SDS011;1441;48.886;8.728;2023-05-17T02:01:06;2.43;;;1.00;;
2866;SDS011;1441;48.886;8.728;2023-05-17T02:03:32;1.00;;;0.90;;
2866;SDS011;1441;48.886;8.728;2023-05-17T02:05:58;7.20;;;1.33;;
2866;SDS011;1441;48.886;8.728;2023-05-17T02:08:23;4.00;;;1.10;;
2866;SDS011;1441;48.886;8.728;2023-05-17T02:10:49;1.73;;;1.10;;
2866;SDS011;1441;48.886;8.728;2023-05-17T02:13:14;5.27;;;1.50;;
2866;SDS011;1441;48.886;8.728;2023-05-17T02:15:40;7.00;;;1.07;;
2866;SDS011;1441;48.886;8.728;2023-05-17T02:18:05;3.77;;;1.20;;
2866;SDS011;1441;48.886;8.728;2023-05-17T02:20:31;6.03;;;1.10;;
2866;SDS011;1441;48.886;8.728;2023-05-17T02:22:57;3.50;;;1.33;;
2866;SDS011;1441;48.886;8.728;2023-05-17T02:25:22;4.10;;;1.07;;
2866;SDS011;1441;48.886;8.728;2023-05-17T02:27:48;2.50;;;0.90;;
2866;SDS011;1441;48.886;8.728;2023-05-17T02:30:13;3.73;;;1.30;;
2866;SDS011;1441;48.886;8.728;2023-05-17T02:32:41;2.43;;;1.50;;
2866;SDS011;1441;48.886;8.728;2023-05-17T02:35:07;4.63;;;1.23;;
2866;SDS011;1441;48.886;8.728;2023-05-17T02:37:33;5.50;;;1.23;;
2866;SDS011;1441;48.886;8.728;2023-05-17T02:39:58;9.23;;;1.13;;
2866;SDS011;1441;48.886;8.728;2023-05-17T02:42:24;10.87;;;1.10;;
2866;SDS011;1441;48.886;8.728;2023-05-17T02:44:50;2.70;;;1.20;;
2866;SDS011;1441;48.886;8.728;2023-05-17T02:47:20;1.40;;;1.03;;
2866;SDS011;1441;48.886;8.728;2023-05-17T02:49:45;2.90;;;1.50;;
2866;SDS011;1441;48.886;8.728;2023-05-17T02:52:12;2.80;;;1.10;;
2866;SDS011;1441;48.886;8.728;2023-05-17T02:54:39;6.87;;;1.27;;
2866;SDS011;1441;48.886;8.728;2023-05-17T02:57:07;7.60;;;1.70;;
2866;SDS011;1441;48.886;8.728;2023-05-17T02:59:33;3.00;;;1.30;;
2866;SDS011;1441;48.886;8.728;2023-05-17T03:01:58;9.00;;;1.67;;
2866;SDS011;1441;48.886;8.728;2023-05-17T03:04:24;4.43;;;1.37;;
2866;SDS011;1441;48.886;8.728;2023-05-17T03:06:49;4.43;;;1.50;;
2866;SDS011;1441;48.886;8.728;2023-05-17T03:09:15;6.90;;;1.53;;
2866;SDS011;1441;48.886;8.728;2023-05-17T03:11:41;3.10;;;1.47;;
2866;SDS011;1441;48.886;8.728;2023-05-17T03:14:06;3.23;;;1.07;;
2866;SDS011;1441;48.886;8.728;2023-05-17T03:16:32;1.40;;;1.30;;
2866;SDS011;1441;48.886;8.728;2023-05-17T03:18:57;1.13;;;1.13;;
2866;SDS011;1441;48.886;8.728;2023-05-17T03:21:23;3.67;;;1.30;;
2866;SDS011;1441;48.886;8.728;2023-05-17T03:23:48;1.80;;;1.10;;
2866;SDS011;1441;48.886;8.728;2023-05-17T03:26:14;4.60;;;1.20;;
2866;SDS011;1441;48.886;8.728;2023-05-17T03:28:40;3.63;;;1.70;;
2866;SDS011;1441;48.886;8.728;2023-05-17T03:31:05;6.57;;;1.47;;
2866;SDS011;1441;48.886;8.728;2023-05-17T03:33:31;5.83;;;1.47;;
2866;SDS011;1441;48.886;8.728;2023-05-17T03:35:56;2.00;;;1.63;;
2866;SDS011;1441;48.886;8.728;2023-05-17T03:38:22;3.93;;;1.33;;
2866;SDS011;1441;48.886;8.728;2023-05-17T03:40:48;2.37;;;1.30;;
2866;SDS011;1441;48.886;8.728;2023-05-17T03:43:15;2.10;;;1.13;;
2866;SDS011;1441;48.886;8.728;2023-05-17T03:45:41;9.07;;;1.43;;
2866;SDS011;1441;48.886;8.728;2023-05-17T03:48:06;2.93;;;1.20;;
2866;SDS011;1441;48.886;8.728;2023-05-17T03:50:32;11.30;;;2.27;;
2866;SDS011;1441;48.886;8.728;2023-05-17T03:52:58;6.03;;;1.50;;
2866;SDS011;1441;48.886;8.728;2023-05-17T03:55:23;5.87;;;2.20;;
2866;SDS011;1441;48.886;8.728;2023-05-17T03:57:49;2.03;;;1.60;;
2866;SDS011;1441;48.886;8.728;2023-05-17T04:00:14;3.23;;;1.50;;
2866;SDS011;1441;48.886;8.728;2023-05-17T04:02:45;8.60;;;1.67;;
2866;SDS011;1441;48.886;8.728;2023-05-17T04:05:11;4.90;;;2.23;;
2866;SDS011;1441;48.886;8.728;2023-05-17T04:07:37;4.70;;;1.50;;
2866;SDS011;1441;48.886;8.728;2023-05-17T04:10:03;4.50;;;1.90;;
2866;SDS011;1441;48.886;8.728;2023-05-17T04:12:29;3.03;;;1.30;;
2866;SDS011;1441;48.886;8.728;2023-05-17T04:14:55;4.70;;;2.03;;
2866;SDS011;1441;48.886;8.728;2023-05-17T04:17:20;7.50;;;1.90;;
2866;SDS011;1441;48.886;8.728;2023-05-17T04:19:46;8.43;;;1.53;;
2866;SDS011;1441;48.886;8.728;2023-05-17T04:22:11;2.03;;;1.50;;
2866;SDS011;1441;48.886;8.728;2023-05-17T04:24:37;4.63;;;1.40;;
2866;SDS011;1441;48.886;8.728;2023-05-17T04:27:03;6.63;;;1.90;;
2866;SDS011;1441;48.886;8.728;2023-05-17T04:29:29;6.70;;;1.90;;
2866;SDS011;1441;48.886;8.728;2023-05-17T04:31:54;3.50;;;1.63;;
2866;SDS011;1441;48.886;8.728;2023-05-17T04:34:20;1.87;;;1.50;;
2866;SDS011;1441;48.886;8.728;2023-05-17T04:36:49;7.73;;;2.50;;
2866;SDS011;1441;48.886;8.728;2023-05-17T04:39:14;5.40;;;2.33;;
2866;SDS011;1441;48.886;8.728;2023-05-17T04:41:41;6.47;;;1.93;;
2866;SDS011;1441;48.886;8.728;2023-05-17T04:44:07;7.60;;;1.10;;
2866;SDS011;1441;48.886;8.728;2023-05-17T04:46:32;6.50;;;2.30;;
2866;SDS011;1441;48.886;8.728;2023-05-17T04:48:58;1.73;;;1.43;;
2866;SDS011;1441;48.886;8.728;2023-05-17T04:51:24;2.40;;;1.50;;
2866;SDS011;1441;48.886;8.728;2023-05-17T04:53:50;3.27;;;1.50;;
2866;SDS011;1441;48.886;8.728;2023-05-17T04:56:16;4.10;;;2.03;;
2866;SDS011;1441;48.886;8.728;2023-05-17T04:58:42;4.47;;;2.20;;
2866;SDS011;1441;48.886;8.728;2023-05-17T05:01:08;4.77;;;2.20;;
2866;SDS011;1441;48.886;8.728;2023-05-17T05:03:36;9.43;;;2.50;;
2866;SDS011;1441;48.886;8.728;2023-05-17T05:06:02;5.20;;;1.70;;
2866;SDS011;1441;48.886;8.728;2023-05-17T05:08:28;7.17;;;2.07;;
2866;SDS011;1441;48.886;8.728;2023-05-17T05:10:54;4.47;;;1.80;;
2866;SDS011;1441;48.886;8.728;2023-05-17T05:13:20;3.87;;;1.73;;
2866;SDS011;1441;48.886;8.728;2023-05-17T05:15:46;3.57;;;1.73;;
2866;SDS011;1441;48.886;8.728;2023-05-17T05:18:11;1.83;;;1.50;;
2866;SDS011;1441;48.886;8.728;2023-05-17T05:20:37;4.10;;;1.67;;
2866;SDS011;1441;48.886;8.728;2023-05-17T05:23:03;4.10;;;1.40;;
2866;SDS011;1441;48.886;8.728;2023-05-17T05:25:30;6.83;;;2.33;;
2866;SDS011;1441;48.886;8.728;2023-05-17T05:27:58;6.60;;;1.77;;
2866;SDS011;1441;48.886;8.728;2023-05-17T05:30:24;7.00;;;2.53;;
2866;SDS011;1441;48.886;8.728;2023-05-17T05:32:50;3.80;;;1.53;;
2866;SDS011;1441;48.886;8.728;2023-05-17T05:35:16;5.53;;;1.53;;
2866;SDS011;1441;48.886;8.728;2023-05-17T05:37:43;4.30;;;1.70;;
2866;SDS011;1441;48.886;8.728;2023-05-17T05:40:09;5.23;;;1.47;;
2866;SDS011;1441;48.886;8.728;2023-05-17T05:42:35;5.80;;;1.07;;
2866;SDS011;1441;48.886;8.728;2023-05-17T05:45:01;4.33;;;1.70;;
2866;SDS011;1441;48.886;8.728;2023-05-17T05:47:27;1.80;;;1.30;;
2866;SDS011;1441;48.886;8.728;2023-05-17T05:49:52;6.07;;;1.27;;
2866;SDS011;1441;48.886;8.728;2023-05-17T05:52:18;5.27;;;2.33;;
2866;SDS011;1441;48.886;8.728;2023-05-17T05:54:44;5.17;;;1.43;;
2866;SDS011;1441;48.886;8.728;2023-05-17T05:57:09;6.73;;;1.77;;
2866;SDS011;1441;48.886;8.728;2023-05-17T05:59:35;4.77;;;1.83;;
2866;SDS011;1441;48.886;8.728;2023-05-17T06:02:01;4.07;;;2.00;;
2866;SDS011;1441;48.886;8.728;2023-05-17T06:04:26;7.23;;;1.57;;
2866;SDS011;1441;48.886;8.728;2023-05-17T06:06:53;6.10;;;2.10;;
2866;SDS011;1441;48.886;8.728;2023-05-17T06:09:18;2.10;;;1.83;;
2866;SDS011;1441;48.886;8.728;2023-05-17T06:11:44;6.13;;;2.60;;
2866;SDS011;1441;48.886;8.728;2023-05-17T06:14:09;4.80;;;2.67;;
2866;SDS011;1441;48.886;8.728;2023-05-17T06:16:35;5.40;;;3.23;;
2866;SDS011;1441;48.886;8.728;2023-05-17T06:19:01;6.80;;;3.00;;
2866;SDS011;1441;48.886;8.728;2023-05-17T06:21:27;5.47;;;2.93;;
2866;SDS011;1441;48.886;8.728;2023-05-17T06:23:53;9.70;;;3.37;;
2866;SDS011;1441;48.886;8.728;2023-05-17T06:26:19;5.17;;;2.10;;
2866;SDS011;1441;48.886;8.728;2023-05-17T06:28:45;4.60;;;2.10;;
2866;SDS011;1441;48.886;8.728;2023-05-17T06:31:10;4.20;;;1.77;;
2866;SDS011;1441;48.886;8.728;2023-05-17T06:33:36;4.93;;;2.10;;
2866;SDS011;1441;48.886;8.728;2023-05-17T06:36:01;5.83;;;2.23;;
2866;SDS011;1441;48.886;8.728;2023-05-17T06:38:27;2.40;;;1.73;;
2866;SDS011;1441;48.886;8.728;2023-05-17T06:40:53;2.30;;;1.60;;
2866;SDS011;1441;48.886;8.728;2023-05-17T06:43:19;2.73;;;1.67;;
2866;SDS011;1441;48.886;8.728;2023-05-17T06:45:45;3.23;;;2.07;;
2866;SDS011;1441;48.886;8.728;2023-05-17T06:48:11;2.97;;;1.70;;
2866;SDS011;1441;48.886;8.728;2023-05-17T06:50:37;6.20;;;2.50;;
2866;SDS011;1441;48.886;8.728;2023-05-17T06:53:03;3.33;;;2.17;;
2866;SDS011;1441;48.886;8.728;2023-05-17T06:55:28;4.53;;;2.40;;
2866;SDS011;1441;48.886;8.728;2023-05-17T06:57:54;5.23;;;2.10;;
2866;SDS011;1441;48.886;8.728;2023-05-17T07:00:20;2.77;;;1.87;;
2866;SDS011;1441;48.886;8.728;2023-05-17T07:02:46;4.50;;;2.03;;
2866;SDS011;1441;48.886;8.728;2023-05-17T07:05:11;5.70;;;2.67;;
2866;SDS011;1441;48.886;8.728;2023-05-17T07:07:37;6.50;;;2.07;;
2866;SDS011;1441;48.886;8.728;2023-05-17T07:10:03;3.87;;;2.20;;
2866;SDS011;1441;48.886;8.728;2023-05-17T07:12:30;4.20;;;2.30;;
2866;SDS011;1441;48.886;8.728;2023-05-17T07:14:56;4.33;;;2.40;;
2866;SDS011;1441;48.886;8.728;2023-05-17T07:17:21;6.07;;;2.23;;
2866;SDS011;1441;48.886;8.728;2023-05-17T07:19:47;11.80;;;2.50;;
2866;SDS011;1441;48.886;8.728;2023-05-17T07:22:15;6.53;;;2.10;;
2866;SDS011;1441;48.886;8.728;2023-05-17T07:24:41;10.10;;;2.30;;
2866;SDS011;1441;48.886;8.728;2023-05-17T07:27:07;6.07;;;3.33;;
2866;SDS011;1441;48.886;8.728;2023-05-17T07:29:33;6.90;;;2.57;;
2866;SDS011;1441;48.886;8.728;2023-05-17T07:31:59;5.43;;;2.57;;
2866;SDS011;1441;48.886;8.728;2023-05-17T07:34:24;4.10;;;2.47;;
2866;SDS011;1441;48.886;8.728;2023-05-17T07:36:50;6.60;;;2.10;;
2866;SDS011;1441;48.886;8.728;2023-05-17T07:39:15;4.87;;;2.60;;
2866;SDS011;1441;48.886;8.728;2023-05-17T07:41:41;4.70;;;3.33;;
2866;SDS011;1441;48.886;8.728;2023-05-17T07:44:06;5.63;;;2.77;;
2866;SDS011;1441;48.886;8.728;2023-05-17T07:46:32;6.03;;;2.53;;
2866;SDS011;1441;48.886;8.728;2023-05-17T07:48:58;10.00;;;3.77;;
2866;SDS011;1441;48.886;8.728;2023-05-17T07:51:23;8.87;;;4.23;;
2866;SDS011;1441;48.886;8.728;2023-05-17T07:53:49;11.13;;;3.23;;
2866;SDS011;1441;48.886;8.728;2023-05-17T07:56:15;5.10;;;2.10;;
2866;SDS011;1441;48.886;8.728;2023-05-17T07:58:40;10.47;;;2.13;;
2866;SDS011;1441;48.886;8.728;2023-05-17T08:01:06;4.50;;;2.33;;
2866;SDS011;1441;48.886;8.728;2023-05-17T08:03:33;2.80;;;2.30;;
2866;SDS011;1441;48.886;8.728;2023-05-17T08:05:59;5.03;;;1.70;;
2866;SDS011;1441;48.886;8.728;2023-05-17T08:08:25;6.60;;;2.60;;
2866;SDS011;1441;48.886;8.728;2023-05-17T08:10:50;5.57;;;2.80;;
2866;SDS011;1441;48.886;8.728;2023-05-17T08:13:16;5.50;;;2.13;;
2866;SDS011;1441;48.886;8.728;2023-05-17T08:15:42;6.27;;;2.87;;
2866;SDS011;1441;48.886;8.728;2023-05-17T08:18:07;6.00;;;2.10;;
2866;SDS011;1441;48.886;8.728;2023-05-17T08:20:33;4.17;;;2.43;;
2866;SDS011;1441;48.886;8.728;2023-05-17T08:22:58;6.90;;;2.17;;
2866;SDS011;1441;48.886;8.728;2023-05-17T08:25:24;4.00;;;2.10;;
2866;SDS011;1441;48.886;8.728;2023-05-17T08:27:49;4.70;;;1.80;;
2866;SDS011;1441;48.886;8.728;2023-05-17T08:30:15;7.37;;;2.60;;
2866;SDS011;1441;48.886;8.728;2023-05-17T08:32:41;4.70;;;2.27;;
2866;SDS011;1441;48.886;8.728;2023-05-17T08:35:06;4.43;;;2.20;;
2866;SDS011;1441;48.886;8.728;2023-05-17T08:37:32;5.83;;;2.20;;
2866;SDS011;1441;48.886;8.728;2023-05-17T08:39:58;5.67;;;2.30;;
2866;SDS011;1441;48.886;8.728;2023-05-17T08:42:23;4.73;;;2.13;;
2866;SDS011;1441;48.886;8.728;2023-05-17T08:44:49;7.13;;;2.10;;
2866;SDS011;1441;48.886;8.728;2023-05-17T08:47:16;3.47;;;2.37;;
2866;SDS011;1441;48.886;8.728;2023-05-17T08:49:50;5.20;;;2.10;;
2866;SDS011;1441;48.886;8.728;2023-05-17T08:52:17;2.87;;;2.10;;
2866;SDS011;1441;48.886;8.728;2023-05-17T08:54:42;8.07;;;2.33;;
2866;SDS011;1441;48.886;8.728;2023-05-17T08:57:08;3.67;;;1.63;;
2866;SDS011;1441;48.886;8.728;2023-05-17T08:59:35;5.20;;;1.90;;
2866;SDS011;1441;48.886;8.728;2023-05-17T09:02:03;3.63;;;2.33;;
2866;SDS011;1441;48.886;8.728;2023-05-17T09:04:30;6.50;;;2.03;;
2866;SDS011;1441;48.886;8.728;2023-05-17T09:06:56;2.20;;;2.00;;
2866;SDS011;1441;48.886;8.728;2023-05-17T09:09:23;8.77;;;2.90;;
2866;SDS011;1441;48.886;8.728;2023-05-17T09:11:50;3.83;;;1.97;;
2866;SDS011;1441;48.886;8.728;2023-05-17T09:14:15;4.57;;;1.90;;
2866;SDS011;1441;48.886;8.728;2023-05-17T09:16:41;4.00;;;2.40;;
2866;SDS011;1441;48.886;8.728;2023-05-17T09:19:08;3.13;;;2.27;;
2866;SDS011;1441;48.886;8.728;2023-05-17T09:21:40;9.47;;;2.50;;
2866;SDS011;1441;48.886;8.728;2023-05-17T09:24:10;5.53;;;2.10;;
2866;SDS011;1441;48.886;8.728;2023-05-17T09:26:37;4.10;;;2.23;;
2866;SDS011;1441;48.886;8.728;2023-05-17T09:29:06;9.10;;;2.93;;
2866;SDS011;1441;48.886;8.728;2023-05-17T09:31:36;9.57;;;2.63;;
2866;SDS011;1441;48.886;8.728;2023-05-17T09:34:02;10.63;;;2.80;;
2866;SDS011;1441;48.886;8.728;2023-05-17T09:36:30;5.50;;;2.17;;
2866;SDS011;1441;48.886;8.728;2023-05-17T09:38:56;6.63;;;2.90;;
2866;SDS011;1441;48.886;8.728;2023-05-17T09:41:30;7.73;;;2.87;;
2866;SDS011;1441;48.886;8.728;2023-05-17T09:43:57;8.47;;;2.60;;
2866;SDS011;1441;48.886;8.728;2023-05-17T09:46:24;8.07;;;2.90;;
2866;SDS011;1441;48.886;8.728;2023-05-17T09:48:53;5.33;;;2.43;;
2866;SDS011;1441;48.886;8.728;2023-05-17T09:51:41;6.23;;;2.90;;
2866;SDS011;1441;48.886;8.728;2023-05-17T09:54:06;8.07;;;2.60;;
2866;SDS011;1441;48.886;8.728;2023-05-17T09:56:34;8.40;;;2.70;;
2866;SDS011;1441;48.886;8.728;2023-05-17T09:59:00;6.90;;;2.70;;
2866;SDS011;1441;48.886;8.728;2023-05-17T10:01:27;6.33;;;2.43;;
2866;SDS011;1441;48.886;8.728;2023-05-17T10:03:55;7.50;;;3.37;;
2866;SDS011;1441;48.886;8.728;2023-05-17T10:06:25;2.67;;;2.20;;
2866;SDS011;1441;48.886;8.728;2023-05-17T10:08:54;6.40;;;2.70;;
2866;SDS011;1441;48.886;8.728;2023-05-17T10:11:23;7.83;;;3.00;;
2866;SDS011;1441;48.886;8.728;2023-05-17T10:14:12;7.03;;;2.97;;
2866;SDS011;1441;48.886;8.728;2023-05-17T10:16:46;5.60;;;2.70;;
2866;SDS011;1441;48.886;8.728;2023-05-17T10:19:12;6.43;;;3.03;;
2866;SDS011;1441;48.886;8.728;2023-05-17T10:21:38;4.33;;;2.40;;
2866;SDS011;1441;48.886;8.728;2023-05-17T10:24:05;4.83;;;2.60;;
2866;SDS011;1441;48.886;8.728;2023-05-17T10:26:31;8.10;;;2.30;;
2866;SDS011;1441;48.886;8.728;2023-05-17T10:28:58;6.50;;;2.97;;
2866;SDS011;1441;48.886;8.728;2023-05-17T10:31:26;4.33;;;2.57;;
2866;SDS011;1441;48.886;8.728;2023-05-17T10:33:53;5.47;;;2.77;;
2866;SDS011;1441;48.886;8.728;2023-05-17T10:36:19;7.50;;;3.00;;
2866;SDS011;1441;48.886;8.728;2023-05-17T10:38:47;6.13;;;2.87;;
2866;SDS011;1441;48.886;8.728;2023-05-17T10:41:13;5.87;;;3.10;;
2866;SDS011;1441;48.886;8.728;2023-05-17T10:43:41;4.67;;;2.80;;
2866;SDS011;1441;48.886;8.728;2023-05-17T10:46:14;3.80;;;2.63;;
2866;SDS011;1441;48.886;8.728;2023-05-17T10:48:40;4.40;;;3.03;;
2866;SDS011;1441;48.886;8.728;2023-05-17T10:51:06;7.00;;;2.40;;
2866;SDS011;1441;48.886;8.728;2023-05-17T10:53:33;7.93;;;4.43;;
2866;SDS011;1441;48.886;8.728;2023-05-17T10:56:31;3.50;;;2.70;;
2866;SDS011;1441;48.886;8.728;2023-05-17T11:01:57;6.93;;;3.13;;
2866;SDS011;1441;48.886;8.728;2023-05-17T11:04:33;4.73;;;2.87;;
2866;SDS011;1441;48.886;8.728;2023-05-17T11:10:28;7.53;;;2.83;;
2866;SDS011;1441;48.886;8.728;2023-05-17T11:12:36;3.57;;;2.17;;
2866;SDS011;1441;48.886;8.728;2023-05-17T11:15:05;4.50;;;2.20;;
2866;SDS011;1441;48.886;8.728;2023-05-17T11:20:06;5.20;;;2.43;;
2866;SDS011;1441;48.886;8.728;2023-05-17T11:22:38;4.60;;;2.60;;
2866;SDS011;1441;48.886;8.728;2023-05-17T11:25:05;2.60;;;2.17;;
2866;SDS011;1441;48.886;8.728;2023-05-17T11:27:36;3.93;;;2.30;;
2866;SDS011;1441;48.886;8.728;2023-05-17T11:32:50;4.60;;;2.33;;
2866;SDS011;1441;48.886;8.728;2023-05-17T11:35:17;3.43;;;2.40;;
2866;SDS011;1441;48.886;8.728;2023-05-17T11:37:47;2.80;;;1.87;;
2866;SDS011;1441;48.886;8.728;2023-05-17T11:40:23;6.03;;;2.90;;
2866;SDS011;1441;48.886;8.728;2023-05-17T11:43:08;4.07;;;2.67;;
2866;SDS011;1441;48.886;8.728;2023-05-17T11:48:17;7.20;;;2.13;;
2866;SDS011;1441;48.886;8.728;2023-05-17T11:50:45;4.47;;;2.07;;
2866;SDS011;1441;48.886;8.728;2023-05-17T11:53:12;5.07;;;2.03;;
2866;SDS011;1441;48.886;8.728;2023-05-17T11:55:42;6.50;;;2.30;;
2866;SDS011;1441;48.886;8.728;2023-05-17T11:58:10;4.50;;;2.07;;
2866;SDS011;1441;48.886;8.728;2023-05-17T12:00:36;7.40;;;2.30;;
2866;SDS011;1441;48.886;8.728;2023-05-17T12:03:20;2.40;;;2.20;;
2866;SDS011;1441;48.886;8.728;2023-05-17T12:06:06;5.40;;;2.33;;
2866;SDS011;1441;48.886;8.728;2023-05-17T12:08:32;2.50;;;1.80;;
2866;SDS011;1441;48.886;8.728;2023-05-17T12:10:58;5.90;;;3.23;;
2866;SDS011;1441;48.886;8.728;2023-05-17T12:13:29;2.40;;;2.20;;
2866;SDS011;1441;48.886;8.728;2023-05-17T12:15:58;5.07;;;2.00;;
2866;SDS011;1441;48.886;8.728;2023-05-17T12:18:36;3.70;;;1.90;;
2866;SDS011;1441;48.886;8.728;2023-05-17T12:21:02;4.40;;;2.70;;
2866;SDS011;1441;48.886;8.728;2023-05-17T12:23:29;3.03;;;2.70;;
2866;SDS011;1441;48.886;8.728;2023-05-17T12:28:35;2.50;;;2.27;;
2866;SDS011;1441;48.886;8.728;2023-05-17T12:31:05;8.40;;;2.70;;
2866;SDS011;1441;48.886;8.728;2023-05-17T12:33:36;5.53;;;2.03;;
2866;SDS011;1441;48.886;8.728;2023-05-17T12:36:05;2.30;;;1.87;;
2866;SDS011;1441;48.886;8.728;2023-05-17T12:38:32;3.17;;;2.10;;
2866;SDS011;1441;48.886;8.728;2023-05-17T12:41:00;6.87;;;2.57;;
2866;SDS011;1441;48.886;8.728;2023-05-17T12:43:27;4.93;;;2.20;;
2866;SDS011;1441;48.886;8.728;2023-05-17T12:45:56;3.90;;;2.40;;
2866;SDS011;1441;48.886;8.728;2023-05-17T12:48:33;5.07;;;2.40;;
2866;SDS011;1441;48.886;8.728;2023-05-17T12:51:07;5.60;;;2.63;;
2866;SDS011;1441;48.886;8.728;2023-05-17T12:53:41;2.20;;;2.00;;
2866;SDS011;1441;48.886;8.728;2023-05-17T12:56:08;4.67;;;2.07;;
2866;SDS011;1441;48.886;8.728;2023-05-17T12:58:40;2.30;;;1.83;;
2866;SDS011;1441;48.886;8.728;2023-05-17T13:01:06;6.07;;;2.33;;
2866;SDS011;1441;48.886;8.728;2023-05-17T13:03:34;7.33;;;2.80;;
2866;SDS011;1441;48.886;8.728;2023-05-17T13:06:04;2.00;;;1.90;;
2866;SDS011;1441;48.886;8.728;2023-05-17T13:08:32;3.53;;;2.20;;
2866;SDS011;1441;48.886;8.728;2023-05-17T13:11:08;5.10;;;3.03;;
2866;SDS011;1441;48.886;8.728;2023-05-17T13:13:34;7.00;;;2.70;;
2866;SDS011;1441;48.886;8.728;2023-05-17T13:16:00;5.17;;;2.50;;
2866;SDS011;1441;48.886;8.728;2023-05-17T13:18:26;2.13;;;1.87;;
2866;SDS011;1441;48.886;8.728;2023-05-17T13:20:52;3.17;;;1.90;;
2866;SDS011;1441;48.886;8.728;2023-05-17T13:23:18;7.20;;;2.87;;
2866;SDS011;1441;48.886;8.728;2023-05-17T13:25:44;3.70;;;2.30;;
2866;SDS011;1441;48.886;8.728;2023-05-17T13:28:09;4.60;;;2.27;;
2866;SDS011;1441;48.886;8.728;2023-05-17T13:30:35;4.60;;;2.17;;
2866;SDS011;1441;48.886;8.728;2023-05-17T13:33:00;5.40;;;2.20;;
2866;SDS011;1441;48.886;8.728;2023-05-17T13:35:26;2.20;;;1.67;;
2866;SDS011;1441;48.886;8.728;2023-05-17T13:37:51;7.33;;;2.50;;
2866;SDS011;1441;48.886;8.728;2023-05-17T13:40:17;3.40;;;1.90;;
2866;SDS011;1441;48.886;8.728;2023-05-17T13:42:43;6.77;;;2.40;;
2866;SDS011;1441;48.886;8.728;2023-05-17T13:45:08;3.37;;;2.00;;
2866;SDS011;1441;48.886;8.728;2023-05-17T13:47:35;2.37;;;2.17;;
2866;SDS011;1441;48.886;8.728;2023-05-17T13:50:01;6.00;;;3.00;;
2866;SDS011;1441;48.886;8.728;2023-05-17T13:52:27;3.00;;;2.30;;
2866;SDS011;1441;48.886;8.728;2023-05-17T13:54:54;6.80;;;2.07;;
2866;SDS011;1441;48.886;8.728;2023-05-17T13:57:19;4.40;;;2.23;;
2866;SDS011;1441;48.886;8.728;2023-05-17T13:59:45;5.17;;;2.30;;
2866;SDS011;1441;48.886;8.728;2023-05-17T14:02:11;2.70;;;1.83;;
2866;SDS011;1441;48.886;8.728;2023-05-17T14:04:36;4.13;;;2.40;;
2866;SDS011;1441;48.886;8.728;2023-05-17T14:07:02;4.90;;;2.47;;
2866;SDS011;1441;48.886;8.728;2023-05-17T14:09:28;3.73;;;2.20;;
2866;SDS011;1441;48.886;8.728;2023-05-17T14:11:58;4.63;;;2.47;;
2866;SDS011;1441;48.886;8.728;2023-05-17T14:14:25;5.27;;;2.20;;
2866;SDS011;1441;48.886;8.728;2023-05-17T14:16:52;6.40;;;2.57;;
2866;SDS011;1441;48.886;8.728;2023-05-17T14:19:20;3.53;;;2.43;;
2866;SDS011;1441;48.886;8.728;2023-05-17T14:21:46;9.07;;;2.10;;
2866;SDS011;1441;48.886;8.728;2023-05-17T14:24:12;4.60;;;2.23;;
2866;SDS011;1441;48.886;8.728;2023-05-17T14:26:37;5.37;;;2.23;;
2866;SDS011;1441;48.886;8.728;2023-05-17T14:29:03;5.93;;;3.30;;
2866;SDS011;1441;48.886;8.728;2023-05-17T14:31:31;3.13;;;2.80;;
2866;SDS011;1441;48.886;8.728;2023-05-17T14:33:57;5.13;;;2.50;;
2866;SDS011;1441;48.886;8.728;2023-05-17T14:36:25;6.60;;;2.50;;
2866;SDS011;1441;48.886;8.728;2023-05-17T14:38:51;3.60;;;2.07;;
2866;SDS011;1441;48.886;8.728;2023-05-17T14:41:16;5.10;;;2.00;;
2866;SDS011;1441;48.886;8.728;2023-05-17T14:43:42;3.33;;;1.80;;
2866;SDS011;1441;48.886;8.728;2023-05-17T14:46:08;2.00;;;1.87;;
2866;SDS011;1441;48.886;8.728;2023-05-17T14:48:34;4.33;;;2.67;;
2866;SDS011;1441;48.886;8.728;2023-05-17T14:51:00;1.97;;;1.87;;
2866;SDS011;1441;48.886;8.728;2023-05-17T14:53:27;1.90;;;1.70;;
2866;SDS011;1441;48.886;8.728;2023-05-17T14:55:53;3.40;;;2.37;;
2866;SDS011;1441;48.886;8.728;2023-05-17T14:58:19;5.27;;;2.50;;
2866;SDS011;1441;48.886;8.728;2023-05-17T15:00:45;3.10;;;2.20;;
2866;SDS011;1441;48.886;8.728;2023-05-17T15:03:12;3.80;;;2.10;;
2866;SDS011;1441;48.886;8.728;2023-05-17T15:05:37;8.40;;;2.27;;
2866;SDS011;1441;48.886;8.728;2023-05-17T15:08:04;2.20;;;1.80;;
2866;SDS011;1441;48.886;8.728;2023-05-17T15:10:30;2.87;;;1.97;;
2866;SDS011;1441;48.886;8.728;2023-05-17T15:12:55;2.30;;;2.07;;
2866;SDS011;1441;48.886;8.728;2023-05-17T15:15:21;2.80;;;2.03;;
2866;SDS011;1441;48.886;8.728;2023-05-17T15:17:47;3.27;;;2.00;;
2866;SDS011;1441;48.886;8.728;2023-05-17T15:20:12;3.83;;;2.87;;
2866;SDS011;1441;48.886;8.728;2023-05-17T15:22:38;3.57;;;2.27;;
2866;SDS011;1441;48.886;8.728;2023-05-17T15:25:04;5.90;;;3.10;;
2866;SDS011;1441;48.886;8.728;2023-05-17T15:27:30;4.40;;;2.30;;
2866;SDS011;1441;48.886;8.728;2023-05-17T15:29:55;4.33;;;3.00;;
2866;SDS011;1441;48.886;8.728;2023-05-17T15:32:21;4.50;;;2.37;;
2866;SDS011;1441;48.886;8.728;2023-05-17T15:34:47;5.20;;;2.50;;
2866;SDS011;1441;48.886;8.728;2023-05-17T15:37:12;2.97;;;2.53;;
2866;SDS011;1441;48.886;8.728;2023-05-17T15:39:38;5.23;;;2.37;;
2866;SDS011;1441;48.886;8.728;2023-05-17T15:42:03;4.87;;;2.73;;
2866;SDS011;1441;48.886;8.728;2023-05-17T15:44:29;3.70;;;2.13;;
2866;SDS011;1441;48.886;8.728;2023-05-17T15:46:55;7.30;;;2.60;;